createdAt,value
2018-08-07T00:00:41.902Z,93627.13
2018-08-07T00:03:13.680Z,93630.77
2018-08-07T00:05:43.375Z,93630.20
2018-08-07T00:08:13.895Z,93628.32
2018-08-07T00:10:44.106Z,93633.61
2018-08-07T00:13:15.284Z,93626.59
2018-08-07T00:15:44.918Z,93629.96
2018-08-07T00:18:15.203Z,93626.06
2018-08-07T00:20:45.181Z,93628.23
2018-08-07T00:23:13.524Z,93633.89
2018-08-07T00:25:41.683Z,93625.73
2018-08-07T00:28:09.802Z,93630.73
2018-08-07T00:30:38.029Z,93629.21
2018-08-07T00:33:06.202Z,93633.88
2018-08-07T00:35:34.313Z,93629.73
2018-08-07T00:38:02.475Z,93633.83
2018-08-07T00:40:30.630Z,93625.05
2018-08-07T00:42:58.800Z,93626.11
2018-08-07T00:45:26.879Z,93625.29
2018-08-07T00:47:55.066Z,93628.52
2018-08-07T00:50:23.199Z,93629.25
2018-08-07T00:52:52.486Z,93627.02
2018-08-07T00:55:21.018Z,93622.36
2018-08-07T00:57:49.939Z,93622.84
2018-08-07T01:00:18.145Z,93627.60
2018-08-07T01:02:46.438Z,93627.63
2018-08-07T01:05:15.917Z,93628.94
2018-08-07T01:07:44.298Z,93619.09
2018-08-07T01:10:14.234Z,93620.39
2018-08-07T01:12:42.603Z,93618.05
2018-08-07T01:15:14.344Z,93622.08
2018-08-07T01:17:43.245Z,93621.48
2018-08-07T01:20:13.470Z,93612.10
2018-08-07T01:22:42.249Z,93616.38
2018-08-07T01:25:15.366Z,93615.08
2018-08-07T01:27:43.592Z,93613.53
2018-08-07T01:30:14.195Z,93612.58
2018-08-07T01:32:42.242Z,93611.88
2018-08-07T01:35:10.252Z,93611.33
2018-08-07T01:37:38.934Z,93611.20
2018-08-07T01:40:08.637Z,93606.58
2018-08-07T01:42:36.767Z,93614.81
2018-08-07T01:45:05.846Z,93613.72
2018-08-07T01:47:34.021Z,93617.43
2018-08-07T01:50:02.113Z,93616.48
2018-08-07T01:52:30.256Z,93614.34
2018-08-07T01:54:58.329Z,93613.86
2018-08-07T01:57:26.428Z,93618.27
2018-08-07T01:59:54.591Z,93617.92
2018-08-07T02:02:22.860Z,93618.48
2018-08-07T02:04:50.978Z,93614.81
2018-08-07T02:07:19.140Z,93614.69
2018-08-07T02:09:47.403Z,93614.81
2018-08-07T02:12:15.570Z,93615.63
2018-08-07T02:14:44.400Z,93617.67
2018-08-07T02:17:12.668Z,93616.86
2018-08-07T02:19:40.796Z,93615.08
2018-08-07T02:22:08.869Z,93613.55
2018-08-07T02:24:37.052Z,93617.13
2018-08-07T02:27:05.281Z,93614.19
2018-08-07T02:29:33.444Z,93615.61
2018-08-07T02:32:01.685Z,93620.27
2018-08-07T02:34:29.830Z,93627.63
2018-08-07T02:36:57.908Z,93623.00
2018-08-07T02:39:25.987Z,93625.41
2018-08-07T02:41:54.256Z,93630.88
2018-08-07T02:44:22.386Z,93633.27
2018-08-07T02:46:50.608Z,93629.70
2018-08-07T02:49:18.731Z,93629.70
2018-08-07T02:51:46.910Z,93630.88
2018-08-07T02:54:15.107Z,93633.64
2018-08-07T02:56:43.232Z,93635.17
2018-08-07T02:59:11.480Z,93630.31
2018-08-07T03:01:39.646Z,93633.65
2018-08-07T03:04:07.959Z,93629.58
2018-08-07T03:06:36.225Z,93640.65
2018-08-07T03:09:07.195Z,93642.22
2018-08-07T03:11:35.380Z,93645.32
2018-08-07T03:14:03.799Z,93646.82
2018-08-07T03:16:32.100Z,93644.95
2018-08-07T03:19:00.485Z,93653.36
2018-08-07T03:21:28.709Z,93649.92
2018-08-07T03:23:57.067Z,93646.97
2018-08-07T03:26:25.308Z,93648.65
2018-08-07T03:28:53.485Z,93654.33
2018-08-07T03:31:21.833Z,93657.44
2018-08-07T03:33:50.050Z,93657.44
2018-08-07T03:36:18.635Z,93656.02
2018-08-07T03:38:46.749Z,93659.94
2018-08-07T03:41:14.959Z,93658.63
2018-08-07T03:43:43.204Z,93660.59
2018-08-07T03:46:11.805Z,93660.14
2018-08-07T03:48:40.202Z,93658.64
2018-08-07T03:51:08.382Z,93653.15
2018-08-07T03:53:37.205Z,93654.75
2018-08-07T03:56:06.453Z,93658.67
2018-08-07T03:58:35.262Z,93660.25
2018-08-07T04:01:04.284Z,93659.75
2018-08-07T04:03:33.457Z,93658.34
2018-08-07T04:06:03.551Z,93662.05
2018-08-07T04:08:34.065Z,93664.27
2018-08-07T04:11:02.475Z,93672.26
2018-08-07T04:13:32.034Z,93664.47
2018-08-07T04:16:04.296Z,93666.45
2018-08-07T04:18:33.081Z,93662.48
2018-08-07T04:21:01.152Z,93675.42
2018-08-07T04:23:29.429Z,93674.37
2018-08-07T04:25:58.126Z,93668.46
2018-08-07T04:28:26.479Z,93682.23
2018-08-07T04:30:54.607Z,93676.22
2018-08-07T04:33:22.988Z,93681.70
2018-08-07T04:35:51.213Z,93677.55
2018-08-07T04:38:19.270Z,93679.42
2018-08-07T04:40:47.388Z,93680.23
2018-08-07T04:43:15.864Z,93677.91
2018-08-07T04:45:44.253Z,93684.02
2018-08-07T04:48:12.754Z,93682.81
2018-08-07T04:50:41.011Z,93683.50
2018-08-07T04:53:10.459Z,93686.80
2018-08-07T04:55:39.280Z,93683.39
2018-08-07T04:58:07.621Z,93693.67
2018-08-07T05:00:35.811Z,93686.62
2018-08-07T05:03:04.304Z,93689.12
2018-08-07T05:05:32.613Z,93695.69
2018-08-07T05:08:00.900Z,93698.95
2018-08-07T05:10:29.670Z,93695.79
2018-08-07T05:12:58.134Z,93702.60
2018-08-07T05:15:26.503Z,93699.72
2018-08-07T05:17:54.763Z,93698.29
2018-08-07T05:20:23.094Z,93699.13
2018-08-07T05:22:51.469Z,93706.06
2018-08-07T05:25:19.817Z,93705.73
2018-08-07T05:27:48.087Z,93707.05
2018-08-07T05:30:16.980Z,93713.02
2018-08-07T05:32:45.354Z,93713.54
2018-08-07T05:35:14.787Z,93709.17
2018-08-07T05:37:43.490Z,93711.33
2018-08-07T05:40:11.964Z,93711.54
2018-08-07T05:42:40.869Z,93703.77
2018-08-07T05:45:10.940Z,93712.03
2018-08-07T05:47:39.182Z,93708.04
2018-08-07T05:50:10.230Z,93712.18
2018-08-07T06:29:36.165Z,93719.78
2018-08-07T06:32:04.357Z,93725.57
2018-08-07T06:34:32.641Z,93727.44
2018-08-07T06:37:00.876Z,93724.19
2018-08-07T06:39:29.345Z,93717.70
2018-08-07T06:41:57.698Z,93721.75
2018-08-07T06:44:26.129Z,93720.26
2018-08-07T06:46:54.676Z,93719.34
2018-08-07T06:49:22.874Z,93716.92
2018-08-07T06:51:51.345Z,93727.48
2018-08-07T06:54:21.714Z,93723.55
2018-08-07T06:56:49.904Z,93725.43
2018-08-07T06:59:18.191Z,93718.66
2018-08-07T07:01:48.452Z,93717.48
2018-08-07T07:04:17.310Z,93717.43
2018-08-07T07:06:45.672Z,93712.56
2018-08-07T07:09:13.843Z,93717.43
2018-08-07T07:11:42.699Z,93709.81
2018-08-07T07:14:14.919Z,93724.16
2018-08-07T07:16:43.523Z,93727.10
2018-08-07T07:19:11.688Z,93723.16
2018-08-07T07:21:39.986Z,93721.40
2018-08-07T07:24:18.468Z,93721.20
2018-08-07T07:26:46.721Z,93725.19
2018-08-07T07:29:15.108Z,93725.09
2018-08-07T07:31:43.938Z,93719.80
2018-08-07T07:34:13.857Z,93720.11
2018-08-07T07:36:43.019Z,93718.49
2018-08-07T07:39:11.563Z,93716.73
2018-08-07T07:41:40.526Z,93715.21
2018-08-07T07:44:11.114Z,93718.75
2018-08-07T07:46:41.967Z,93714.89
2018-08-07T07:49:11.025Z,93718.16
2018-08-07T07:51:39.594Z,93711.77
2018-08-07T07:54:09.290Z,93716.95
2018-08-07T07:56:38.172Z,93713.73
2018-08-07T07:59:07.101Z,93716.57
2018-08-07T08:01:35.323Z,93719.03
2018-08-07T08:04:03.734Z,93720.30
2018-08-07T08:06:31.988Z,93720.17
2018-08-07T08:09:00.388Z,93719.73
2018-08-07T08:11:28.593Z,93717.91
2018-08-07T08:13:57.803Z,93715.45
2018-08-07T08:16:25.974Z,93719.89
2018-08-07T08:18:54.183Z,93714.92
2018-08-07T08:21:25.031Z,93713.99
2018-08-07T08:23:53.634Z,93711.00
2018-08-07T08:26:21.992Z,93713.80
2018-08-07T08:28:50.150Z,93714.02
2018-08-07T08:31:18.551Z,93708.95
2018-08-07T08:33:47.023Z,93711.02
2018-08-07T08:36:15.124Z,93710.47
2018-08-07T08:38:43.307Z,93703.20
2018-08-07T08:41:11.422Z,93709.88
2018-08-07T08:43:39.684Z,93706.45
2018-08-07T08:46:08.018Z,93708.35
2018-08-07T08:48:36.345Z,93701.03
2018-08-07T08:51:04.618Z,93703.63
2018-08-07T08:53:33.076Z,93705.05
2018-08-07T08:56:01.539Z,93709.30
2018-08-07T08:58:29.738Z,93694.95
2018-08-07T09:00:58.242Z,93701.02
2018-08-07T09:03:26.496Z,93699.91
2018-08-07T09:05:54.856Z,93697.28
2018-08-07T09:08:23.014Z,93705.78
2018-08-07T09:10:52.122Z,93704.14
2018-08-07T09:13:24.109Z,93707.53
2018-08-07T09:15:52.757Z,93696.19
2018-08-07T09:18:21.160Z,93693.00
2018-08-07T09:20:49.728Z,93698.28
2018-08-07T09:23:18.255Z,93692.46
2018-08-07T09:25:46.558Z,93695.86
2018-08-07T09:28:14.744Z,93691.95
2018-08-07T09:30:43.182Z,93687.56
2018-08-07T09:33:11.449Z,93685.59
2018-08-07T10:04:34.335Z,93659.95
2018-08-07T10:07:02.622Z,93664.20
2018-08-07T10:09:30.870Z,93663.44
2018-08-07T10:12:00.682Z,93662.23
2018-08-07T10:14:31.592Z,93651.67
2018-08-07T10:17:01.115Z,93656.89
2018-08-07T10:19:29.449Z,93648.30
2018-08-07T10:21:57.672Z,93641.59
2018-08-07T10:24:26.022Z,93635.98
2018-08-07T10:26:54.399Z,93639.79
2018-08-07T10:29:22.723Z,93634.63
2018-08-07T10:31:51.238Z,93637.95
2018-08-07T10:34:21.756Z,93623.34
2018-08-07T10:36:50.589Z,93632.88
2018-08-07T10:39:18.986Z,93630.29
2018-08-07T10:41:47.390Z,93628.47
2018-08-07T10:44:17.898Z,93627.73
2018-08-07T10:46:48.534Z,93616.98
2018-08-07T10:49:17.507Z,93615.27
2018-08-07T10:51:47.791Z,93616.55
2018-08-07T10:54:17.328Z,93618.16
2018-08-07T10:56:47.760Z,93606.77
2018-08-07T10:59:17.203Z,93606.95
2018-08-07T11:01:46.271Z,93596.53
2018-08-07T11:04:17.238Z,93586.95
2018-08-07T11:06:45.947Z,93591.21
2018-08-07T11:09:14.191Z,93587.39
2018-08-07T11:11:42.819Z,93593.42
2018-08-07T11:14:11.186Z,93587.31
2018-08-07T11:16:39.416Z,93584.75
2018-08-07T11:19:07.614Z,93579.69
2018-08-07T11:21:35.830Z,93576.91
2018-08-07T11:24:05.641Z,93578.77
2018-08-07T11:26:34.166Z,93576.80
2018-08-07T11:29:02.440Z,93571.54
2018-08-07T11:31:30.867Z,93572.22
2018-08-07T11:34:02.887Z,93570.83
2018-08-07T11:36:31.235Z,93570.66
2018-08-07T11:38:59.896Z,93572.31
2018-08-07T11:41:28.620Z,93571.48
2018-08-07T11:44:00.610Z,93574.34
2018-08-07T11:46:30.489Z,93566.53
2018-08-07T11:48:59.398Z,93569.31
2018-08-07T11:51:28.032Z,93566.03
2018-08-07T11:53:58.570Z,93560.50
2018-08-07T11:56:27.633Z,93560.77
2018-08-07T11:58:59.180Z,93555.05
2018-08-07T12:01:27.703Z,93554.97
2018-08-07T12:03:59.302Z,93556.54
2018-08-07T12:06:27.728Z,93550.75
2018-08-07T12:08:56.021Z,93550.33
2018-08-07T12:11:24.313Z,93546.50
2018-08-07T12:13:52.709Z,93542.55
2018-08-07T12:16:20.998Z,93540.03
2018-08-07T12:18:49.630Z,93531.41
2018-08-07T12:21:17.832Z,93533.14
2018-08-07T12:23:46.167Z,93531.53
2018-08-07T12:26:14.449Z,93529.61
2018-08-07T12:28:42.801Z,93524.46
2018-08-07T12:31:11.077Z,93528.02
2018-08-07T12:33:39.193Z,93525.54
2018-08-07T12:36:08.082Z,93521.41
2018-08-07T12:38:36.539Z,93523.90
2018-08-07T12:41:05.063Z,93520.98
2018-08-07T12:43:33.376Z,93525.44
2018-08-07T12:46:01.497Z,93527.06
2018-08-07T12:48:30.237Z,93536.52
2018-08-07T12:50:58.513Z,93532.09
2018-08-07T12:53:27.280Z,93535.88
2018-08-07T12:55:55.596Z,93534.31
2018-08-07T12:58:24.047Z,93532.51
2018-08-07T13:00:52.345Z,93528.33
2018-08-07T13:03:21.331Z,93532.17
2018-08-07T13:05:50.206Z,93532.03
2018-08-07T13:08:18.544Z,93526.86
2018-08-07T13:10:47.540Z,93525.88
2018-08-07T13:13:15.868Z,93525.20
2018-08-07T13:15:44.100Z,93523.11
2018-08-07T13:18:12.447Z,93515.92
2018-08-07T13:20:40.735Z,93518.75
2018-08-07T13:23:08.908Z,93515.41
2018-08-07T13:25:37.102Z,93517.06
2018-08-07T13:28:05.545Z,93518.14
2018-08-07T13:30:33.965Z,93514.16
2018-08-07T13:33:02.592Z,93514.97
2018-08-07T13:35:30.821Z,93511.45
2018-08-07T13:37:59.057Z,93510.05
2018-08-07T13:40:27.261Z,93520.65
2018-08-07T13:42:55.645Z,93520.09
2018-08-07T13:45:25.287Z,93518.97
2018-08-07T13:47:53.676Z,93517.94
2018-08-07T13:50:23.818Z,93515.19
2018-08-07T13:52:52.695Z,93516.42
2018-08-07T13:55:22.101Z,93522.86
2018-08-07T13:57:50.302Z,93523.92
2018-08-07T14:00:22.342Z,93519.38
2018-08-07T14:02:51.272Z,93524.87
2018-08-07T14:05:20.807Z,93534.52
2018-08-07T14:07:51.874Z,93536.26
2018-08-07T14:10:25.408Z,93540.09
2018-08-07T14:12:59.586Z,93541.80
2018-08-07T14:15:31.161Z,93548.69
2018-08-07T14:18:00.622Z,93545.67
2018-08-07T14:20:29.505Z,93539.06
2018-08-07T14:23:05.684Z,93544.60
2018-08-07T14:25:34.602Z,93541.51
2018-08-07T14:28:04.017Z,93540.63
2018-08-07T14:30:32.712Z,93528.70
2018-08-07T14:33:05.347Z,93533.12
2018-08-07T14:35:33.674Z,93526.22
2018-08-07T14:38:07.206Z,93532.06
2018-08-07T14:40:36.352Z,93534.79
2018-08-07T14:43:05.301Z,93534.98
2018-08-07T14:45:33.767Z,93544.23
2018-08-07T14:48:02.695Z,93538.41
2018-08-07T14:50:31.391Z,93535.80
2018-08-07T14:53:00.162Z,93536.63
2018-08-07T14:55:28.959Z,93536.50
2018-08-07T14:57:57.401Z,93537.55
2018-08-07T15:00:28.582Z,93543.22
2018-08-07T15:02:59.480Z,93541.27
2018-08-07T15:05:31.463Z,93548.37
2018-08-07T15:08:04.942Z,93548.27
2018-08-07T15:10:33.817Z,93553.19
2018-08-07T15:13:04.882Z,93555.45
2018-08-07T15:15:35.298Z,93551.56
2018-08-07T15:18:11.265Z,93559.64
2018-08-07T15:20:40.291Z,93556.53
2018-08-07T15:23:09.171Z,93560.23
2018-08-07T15:25:39.957Z,93568.66
2018-08-07T15:28:09.706Z,93572.25
2018-08-07T15:30:41.731Z,93577.16
2018-08-07T15:33:11.712Z,93572.81
2018-08-07T15:35:40.401Z,93581.95
2018-08-07T15:38:08.849Z,93580.75
2018-08-07T15:40:37.554Z,93571.19
2018-08-07T15:43:06.580Z,93582.56
2018-08-07T15:45:36.985Z,93577.25
2018-08-07T15:48:08.789Z,93580.73
2018-08-07T15:50:39.376Z,93579.58
2018-08-07T15:53:07.868Z,93578.13
2018-08-07T15:55:36.350Z,93574.44
2018-08-07T15:58:05.701Z,93571.11
2018-08-07T16:00:34.280Z,93574.28
2018-08-07T16:03:04.499Z,93570.16
2018-08-07T16:05:33.166Z,93575.72
2018-08-07T16:08:01.785Z,93575.59
2018-08-07T16:10:30.120Z,93573.06
2018-08-07T16:12:58.718Z,93575.31
2018-08-07T16:15:27.082Z,93574.86
2018-08-07T16:17:55.495Z,93577.57
2018-08-07T16:20:24.553Z,93584.63
2018-08-07T16:22:53.010Z,93580.18
2018-08-07T16:25:22.127Z,93582.42
2018-08-07T16:27:50.962Z,93584.63
2018-08-07T16:30:21.924Z,93587.75
2018-08-07T16:32:50.547Z,93588.67
2018-08-07T16:35:19.076Z,93590.11
2018-08-07T16:37:47.842Z,93585.84
2018-08-07T16:40:24.153Z,93586.93
2018-08-07T16:42:53.551Z,93589.35
2018-08-07T16:45:22.936Z,93583.39
2018-08-07T16:47:51.505Z,93585.13
2018-08-07T16:50:23.684Z,93581.98
2018-08-07T16:52:53.201Z,93587.88
2018-08-07T16:55:22.792Z,93586.88
2018-08-07T16:57:51.245Z,93581.59
2018-08-07T17:00:19.773Z,93590.05
2018-08-07T17:02:48.554Z,93595.75
2018-08-07T17:05:17.695Z,93596.52
2018-08-07T17:07:46.958Z,93605.59
2018-08-07T17:10:20.274Z,93601.20
2018-08-07T17:12:49.060Z,93602.25
2018-08-07T17:15:17.519Z,93600.53
2018-08-07T17:17:46.122Z,93601.16
2018-08-07T17:20:16.154Z,93599.58
2018-08-07T17:22:44.801Z,93599.58
2018-08-07T17:25:15.609Z,93595.16
2018-08-07T17:27:45.211Z,93604.11
2018-08-07T17:30:17.070Z,93604.66
2018-08-07T17:32:45.996Z,93596.58
2018-08-07T17:35:19.706Z,93598.44
2018-08-07T17:37:50.876Z,93599.11
2018-08-07T17:40:22.263Z,93598.77
2018-08-07T17:42:55.381Z,93596.13
2018-08-07T17:45:23.948Z,93603.08
2018-08-07T17:47:52.364Z,93605.35
2018-08-07T17:50:22.787Z,93610.64
2018-08-07T17:52:51.606Z,93603.01
2018-08-07T17:55:24.807Z,93606.94
2018-08-07T17:57:55.179Z,93612.83
2018-08-07T18:00:28.338Z,93613.48
2018-08-07T18:02:59.076Z,93615.77
2018-08-07T18:05:34.683Z,93614.58
2018-08-07T18:08:03.931Z,93614.40
2018-08-07T18:10:32.308Z,93616.19
2018-08-07T18:13:00.635Z,93627.91
2018-08-07T18:15:29.350Z,93620.23
2018-08-07T18:17:58.240Z,93623.20
2018-08-07T18:20:27.849Z,93626.17
2018-08-07T18:22:56.364Z,93619.52
2018-08-07T18:25:29.150Z,93622.30
2018-08-07T18:27:58.053Z,93628.17
2018-08-07T18:30:26.656Z,93624.21
2018-08-07T18:32:55.287Z,93630.81
2018-08-07T18:35:25.783Z,93631.64
2018-08-07T18:37:54.342Z,93640.54
2018-08-07T18:40:24.850Z,93640.02
2018-08-07T18:42:53.758Z,93637.67
2018-08-07T18:45:22.230Z,93647.25
2018-08-07T18:47:50.555Z,93642.69
2018-08-07T18:50:20.545Z,93647.27
2018-08-07T18:52:49.096Z,93649.73
2018-08-07T18:55:17.819Z,93647.89
2018-08-07T18:57:47.470Z,93653.93
2018-08-07T19:00:18.260Z,93662.41
2018-08-07T19:02:47.070Z,93665.60
2018-08-07T19:05:18.284Z,93673.02
2018-08-07T19:07:46.982Z,93670.62
2018-08-07T19:10:15.431Z,93671.91
2018-08-07T19:12:44.775Z,93673.05
2018-08-07T19:15:14.271Z,93672.84
2018-08-07T19:17:43.990Z,93668.22
2018-08-07T19:20:14.296Z,93674.75
2018-08-07T19:22:44.625Z,93676.67
2018-08-07T19:25:16.034Z,93677.47
2018-08-07T19:27:45.306Z,93673.30
2018-08-07T19:30:15.739Z,93681.78
2018-08-07T19:32:44.483Z,93680.89
2018-08-07T19:35:13.705Z,93677.22
2018-08-07T19:37:42.487Z,93671.23
2018-08-07T19:40:13.573Z,93669.27
2018-08-07T19:42:42.119Z,93671.12
2018-08-07T19:45:11.563Z,93672.13
2018-08-07T19:47:41.617Z,93671.80
2018-08-07T19:50:12.935Z,93670.27
2018-08-07T19:52:41.717Z,93673.41
2018-08-07T19:55:13.404Z,93670.16
2018-08-07T19:57:41.751Z,93670.09
2018-08-07T20:00:22.005Z,93671.38
2018-08-07T20:02:50.820Z,93674.26
2018-08-07T20:05:19.332Z,93679.14
2018-08-07T20:07:47.931Z,93679.59
2018-08-07T20:10:17.471Z,93680.52
2018-08-07T20:12:46.496Z,93677.20
2018-08-07T20:15:19.373Z,93672.34
2018-08-07T20:17:48.058Z,93677.20
2018-08-07T20:20:16.188Z,93669.39
2018-08-07T20:22:44.466Z,93672.48
2018-08-07T20:25:12.841Z,93673.53
2018-08-07T20:27:41.162Z,93666.13
2018-08-07T20:30:14.314Z,93665.91
2018-08-07T20:32:43.627Z,93667.86
2018-08-07T20:35:11.887Z,93669.95
2018-08-07T20:37:40.101Z,93670.40
2018-08-07T20:40:11.903Z,93672.00
2018-08-07T20:42:40.057Z,93666.67
2018-08-07T20:45:09.536Z,93657.87
2018-08-07T20:47:38.722Z,93667.04
2018-08-07T20:50:12.351Z,93668.63
2018-08-07T20:52:41.593Z,93673.44
2018-08-07T20:55:09.944Z,93676.52
2018-08-07T20:57:38.163Z,93684.33
2018-08-07T21:00:08.119Z,93687.06
2018-08-07T21:02:36.612Z,93689.53
2018-08-07T21:05:05.206Z,93699.52
2018-08-07T21:07:34.722Z,93693.23
2018-08-07T21:10:03.851Z,93691.69
2018-08-07T21:12:32.150Z,93699.27
2018-08-07T21:15:02.930Z,93685.98
2018-08-07T21:17:31.952Z,93699.47
2018-08-07T21:20:00.464Z,93708.98
2018-08-07T21:22:36.363Z,93706.13
2018-08-07T21:25:11.277Z,93712.94
2018-08-07T21:27:39.721Z,93711.26
2018-08-07T21:30:14.418Z,93705.80
2018-08-07T21:32:44.414Z,93705.80
2018-08-07T21:35:13.746Z,93701.48
2018-08-07T21:37:43.360Z,93701.07
2018-08-07T21:40:18.609Z,93706.27
2018-08-07T21:42:49.433Z,93705.45
2018-08-07T21:45:18.155Z,93706.95
2018-08-07T21:47:51.952Z,93711.20
2018-08-07T21:50:25.189Z,93713.41
2018-08-07T21:53:01.459Z,93710.84
2018-08-07T21:55:30.584Z,93710.42
2018-08-07T21:58:04.297Z,93713.48
2018-08-07T22:00:51.539Z,93709.66
2018-08-07T22:03:20.337Z,93705.91
2018-08-07T22:05:51.131Z,93705.66
2018-08-07T22:08:19.590Z,93708.58
2018-08-07T22:10:47.888Z,93703.73
2018-08-07T22:13:16.929Z,93698.54
2018-08-07T22:15:53.218Z,93704.13
2018-08-07T22:18:28.790Z,93703.80
2018-08-07T22:21:02.373Z,93699.66
2018-08-07T22:23:33.314Z,93698.54
2018-08-07T22:26:10.447Z,93691.14
2018-08-07T22:28:47.638Z,93688.28
2018-08-07T22:31:18.932Z,93688.16
2018-08-07T22:33:47.879Z,93691.05
2018-08-07T22:36:15.924Z,93690.84
2018-08-07T22:38:46.201Z,93682.76
2018-08-07T22:41:16.164Z,93678.25
2018-08-07T22:43:48.415Z,93681.43
2018-08-07T22:46:18.354Z,93685.27
2018-08-07T22:48:46.605Z,93693.98
2018-08-07T22:51:14.927Z,93695.81
2018-08-07T22:53:43.066Z,93697.34
2018-08-07T22:56:11.196Z,93693.40
2018-08-07T22:58:39.251Z,93690.59
2018-08-07T23:01:07.932Z,93693.83
2018-08-07T23:03:36.214Z,93695.69
2018-08-07T23:06:04.448Z,93701.98
2018-08-07T23:08:32.583Z,93694.72
2018-08-07T23:11:00.724Z,93694.38
2018-08-07T23:13:28.885Z,93693.41
2018-08-07T23:15:57.135Z,93702.40
2018-08-07T23:18:25.306Z,93698.09
2018-08-07T23:20:53.404Z,93698.09
2018-08-07T23:23:21.519Z,93695.25
2018-08-07T23:25:49.705Z,93699.40
2018-08-07T23:28:17.778Z,93693.13
2018-08-07T23:30:45.844Z,93691.28
2018-08-07T23:33:14.112Z,93697.06
2018-08-07T23:35:42.311Z,93691.57
2018-08-07T23:38:10.464Z,93692.06
2018-08-07T23:40:38.553Z,93696.28
2018-08-07T23:43:06.643Z,93699.76
2018-08-07T23:45:35.075Z,93688.20
2018-08-07T23:48:03.528Z,93689.30
2018-08-07T23:50:32.315Z,93692.66
2018-08-07T23:53:00.607Z,93699.09
2018-08-07T23:55:28.823Z,93707.80
2018-08-07T23:57:56.954Z,93700.13
